Time;durP1;ratioP1;P1;durP2;ratioP2;P2;SDS_P1;SDS_P2;PMS_P1;PMS_P2;Temp;Humidity;BMP_temperature;BMP_pressure;BME280_temperature;BME280_humidity;BME280_pressure;Samples;Min_cycle;Max_cycle;Signal;HPM_P1;HPM_P2
2022/12/17 13:08:21;;;;;;;18.70;1.63;;;;;;;-4.44;100.00;101404.78;5021982;28;20821;-49
2022/12/17 13:10:49;;;;;;;1.17;1.07;;;;;;;-4.58;100.00;101406.69;5025695;28;20444;-49
2022/12/17 13:13:19;;;;;;;2.97;1.13;;;;;;;-4.34;100.00;101398.34;5028329;28;20972;-49
2022/12/17 13:15:50;;;;;;;1.53;1.43;;;;;;;-4.25;100.00;101397.13;5026132;28;20444;-49
2022/12/17 13:18:30;;;;;;;0.50;0.50;;;;;;;-4.18;100.00;101393.09;5021777;28;20478;-49
2022/12/17 13:21:21;;;;;;;3.30;0.80;;;;;;;-4.31;100.00;101389.00;5004460;28;20444;-49
2022/12/17 13:23:48;;;;;;;1.53;1.10;;;;;;;-4.34;100.00;101391.47;5029641;28;20447;-49
2022/12/17 13:26:19;;;;;;;2.13;2.03;;;;;;;-4.08;100.00;101391.84;5021078;28;20451;-49
2022/12/17 13:29:02;;;;;;;0.47;0.47;;;;;;;-4.00;100.00;101390.47;5031078;28;20475;-49
2022/12/17 13:31:42;;;;;;;3.23;3.03;;;;;;;-3.86;100.00;101389.44;5022003;28;20864;-49
2022/12/17 13:34:31;;;;;;;2.10;1.47;;;;;;;-3.66;100.00;101399.06;5021437;28;20448;-49
2022/12/17 13:37:16;;;;;;;1.37;1.27;;;;;;;-3.61;100.00;101399.25;5022978;28;20448;-49
2022/12/17 13:40:11;;;;;;;0.47;0.47;;;;;;;-3.94;100.00;101391.69;5022470;28;20495;-49
2022/12/17 13:42:38;;;;;;;1.10;1.10;;;;;;;-4.15;100.00;101389.75;5021347;28;20448;-49
2022/12/17 13:45:05;;;;;;;1.43;0.60;;;;;;;-4.31;100.00;101402.00;5031182;28;20452;-52
2022/12/17 13:47:34;;;;;;;1.37;1.37;;;;;;;-4.24;100.00;101387.63;5047850;28;20458;-49
2022/12/17 13:50:16;;;;;;;2.20;2.10;;;;;;;-4.20;100.00;101394.72;5022380;28;20465;-49
2022/12/17 13:53:11;;;;;;;2.23;1.93;;;;;;;-3.93;100.00;101398.66;5030236;28;20474;-49
2022/12/17 13:55:38;;;;;;;0.20;0.20;;;;;;;-4.21;100.00;101400.75;5029095;28;20449;-49
2022/12/17 13:58:05;;;;;;;2.40;1.60;;;;;;;-4.15;100.00;101398.44;5026844;28;20536;-50
2022/12/17 14:00:31;;;;;;;0.87;0.87;;;;;;;-4.07;100.00;101410.09;5020806;28;20491;-49
2022/12/17 14:03:09;;;;;;;0.50;0.50;;;;;;;-4.23;100.00;101405.88;5022124;28;20452;-49
2022/12/17 14:05:41;;;;;;;0.73;0.73;;;;;;;-4.11;100.00;101408.16;5021758;28;20466;-49
2022/12/17 14:08:11;;;;;;;0.70;0.70;;;;;;;-4.23;100.00;101410.16;5020866;28;20480;-49
2022/12/17 14:10:42;;;;;;;6.93;0.60;;;;;;;-4.18;100.00;101414.75;4991988;28;20598;-49
2022/12/17 14:13:14;;;;;;;0.60;0.60;;;;;;;-4.15;100.00;101419.19;5027543;28;20449;-49
2022/12/17 14:15:47;;;;;;;2.30;0.60;;;;;;;-4.50;100.00;101418.38;5024503;28;20506;-49
2022/12/17 14:18:16;;;;;;;2.73;0.93;;;;;;;-4.23;100.00;101424.03;5020882;28;20472;-49
2022/12/17 14:20:44;;;;;;;1.00;0.63;;;;;;;-4.71;100.00;101425.03;5022409;28;20492;-49
2022/12/17 14:23:21;;;;;;;1.70;1.60;;;;;;;-4.73;100.00;101425.78;5032050;28;21015;-49
2022/12/17 14:25:48;;;;;;;10.70;2.03;;;;;;;-4.67;100.00;101433.88;5020693;28;20872;-52
2022/12/17 14:28:28;;;;;;;2.20;2.10;;;;;;;-4.54;100.00;101438.84;5020761;28;20468;-50
2022/12/17 14:31:18;;;;;;;1.33;0.70;;;;;;;-4.46;100.00;101434.97;5020526;28;20444;-49
2022/12/17 14:34:09;;;;;;;1.10;1.10;;;;;;;-4.44;100.00;101435.03;5020465;28;20449;-49
2022/12/17 14:36:39;;;;;;;1.33;1.33;;;;;;;-4.70;100.00;101433.72;5024755;28;20802;-49
2022/12/17 14:39:27;;;;;;;0.30;0.30;;;;;;;-4.92;100.00;101436.94;5026002;28;20487;-49
2022/12/17 14:45:28;;;;;;;0.60;0.60;;;;;;;-5.10;100.00;101440.31;5030340;28;20482;-49
2022/12/17 14:47:59;;;;;;;0.90;0.83;;;;;;;-5.31;100.00;101439.19;5022036;28;20515;-48
2022/12/17 14:50:35;;;;;;;0.40;0.40;;;;;;;-5.22;100.00;101439.66;5020230;28;20456;-49
2022/12/17 14:53:22;;;;;;;10.03;1.67;;;;;;;-5.12;100.00;101441.94;5026417;28;20470;-48
2022/12/17 14:55:54;;;;;;;0.97;0.60;;;;;;;-5.18;100.00;101444.22;5014679;28;20449;-48
2022/12/17 14:58:23;;;;;;;0.97;0.33;;;;;;;-5.30;100.00;101440.09;5027129;28;20471;-49
2022/12/17 15:01:05;;;;;;;1.17;1.17;;;;;;;-5.18;100.00;101443.34;5021322;28;21016;-49
2022/12/17 15:03:37;;;;;;;1.40;0.73;;;;;;;-5.05;100.00;101447.47;5019723;28;20945;-49
2022/12/17 15:06:06;;;;;;;3.80;1.80;;;;;;;-4.72;100.00;101456.09;5022078;28;20448;-50
2022/12/17 15:08:36;;;;;;;2.60;2.50;;;;;;;-4.77;100.00;101448.97;5026532;28;20480;-49
2022/12/17 15:11:03;;;;;;;1.30;1.27;;;;;;;-4.77;100.00;101453.28;5025706;28;20444;-50
2022/12/17 15:13:29;;;;;;;2.83;1.40;;;;;;;-4.67;100.00;101459.78;5019322;28;20452;-51
2022/12/17 15:15:56;;;;;;;2.30;0.53;;;;;;;-4.27;100.00;101453.22;5020597;28;20458;-49
2022/12/17 15:18:23;;;;;;;1.27;1.27;;;;;;;-4.53;100.00;101458.78;5026021;28;20471;-50
2022/12/17 15:20:49;;;;;;;2.10;0.50;;;;;;;-4.92;100.00;101462.84;5026010;28;20495;-49
2022/12/17 15:23:18;;;;;;;0.80;0.80;;;;;;;-5.02;100.00;101465.75;5023115;28;20509;-49
2022/12/17 15:25:47;;;;;;;1.43;1.27;;;;;;;-5.19;100.00;101468.34;5032576;28;20444;-49
2022/12/17 15:28:13;;;;;;;1.13;0.60;;;;;;;-5.26;100.00;101468.81;5025630;28;20503;-50
2022/12/17 15:30:40;;;;;;;2.60;1.80;;;;;;;-5.01;100.00;101465.84;5025769;28;20991;-49
2022/12/17 15:33:07;;;;;;;0.27;0.27;;;;;;;-4.90;100.00;101471.59;5020644;28;20539;-50
2022/12/17 15:35:34;;;;;;;1.00;1.00;;;;;;;-4.95;100.00;101479.09;5019621;28;20452;-49
2022/12/17 15:38:02;;;;;;;0.70;0.70;;;;;;;-4.98;100.00;101478.94;5024753;28;20452;-49
2022/12/17 15:40:28;;;;;;;14.53;3.27;;;;;;;-5.20;100.00;101479.53;5026048;28;20856;-49
2022/12/17 15:43:10;;;;;;;10.50;1.93;;;;;;;-5.08;100.00;101477.56;5020242;28;20456;-50
2022/12/17 15:45:42;;;;;;;1.70;1.63;;;;;;;-4.91;100.00;101481.06;5032009;28;20550;-49
2022/12/17 15:48:10;;;;;;;1.03;1.03;;;;;;;-5.02;100.00;101477.03;5032482;28;20479;-50
2022/12/17 15:50:36;;;;;;;1.17;1.17;;;;;;;-5.12;100.00;101482.50;5014972;28;20448;-49
2022/12/17 15:53:03;;;;;;;2.83;1.13;;;;;;;-4.70;100.00;101481.28;5030761;28;20452;-49
2022/12/17 15:55:29;;;;;;;1.77;1.73;;;;;;;-4.99;100.00;101495.31;5027978;28;20452;-49
2022/12/17 15:57:56;;;;;;;2.60;2.40;;;;;;;-5.21;100.00;101482.94;5023004;28;20451;-49
2022/12/17 16:00:26;;;;;;;0.97;0.97;;;;;;;-5.15;100.00;101488.44;5018491;28;20573;-49
2022/12/17 16:02:52;;;;;;;0.30;0.30;;;;;;;-5.19;100.00;101494.25;5031881;28;20481;-49
2022/12/17 16:05:19;;;;;;;4.70;2.77;;;;;;;-5.08;100.00;101493.13;5018882;28;20835;-49
2022/12/17 16:07:46;;;;;;;1.63;1.63;;;;;;;-5.16;100.00;101493.53;5020696;28;20449;-49
2022/12/17 16:10:14;;;;;;;0.50;0.50;;;;;;;-5.11;100.00;101492.06;5025359;28;20468;-50
2022/12/17 16:12:40;;;;;;;0.60;0.60;;;;;;;-5.13;100.00;101486.81;5012213;28;20455;-50
2022/12/17 16:15:08;;;;;;;0.83;0.83;;;;;;;-5.08;100.00;101489.63;5025346;28;20502;-49
2022/12/17 16:17:35;;;;;;;0.93;0.93;;;;;;;-5.24;100.00;101495.69;5007048;28;20862;-49
2022/12/17 16:20:04;;;;;;;0.50;0.50;;;;;;;-5.22;100.00;101498.38;5018620;28;20502;-50
2022/12/17 16:22:30;;;;;;;24.07;2.53;;;;;;;-5.20;100.00;101507.13;5022968;28;20822;-49
2022/12/17 16:24:57;;;;;;;1.80;1.30;;;;;;;-5.52;100.00;101505.34;5031768;28;20475;-49
2022/12/17 16:27:23;;;;;;;4.83;0.80;;;;;;;-5.22;100.00;101506.13;5019111;28;20453;-49
2022/12/17 16:29:49;;;;;;;2.43;2.10;;;;;;;-5.11;100.00;101505.91;5025357;28;20604;-50
2022/12/17 16:32:17;;;;;;;2.43;2.23;;;;;;;-5.42;100.00;101511.13;4994786;28;20456;-50
2022/12/17 16:34:43;;;;;;;1.80;0.60;;;;;;;-5.32;100.00;101517.72;5018834;28;20455;-49
2022/12/17 16:37:10;;;;;;;0.70;0.70;;;;;;;-5.07;100.00;101515.66;5018279;28;20461;-50
2022/12/17 16:39:36;;;;;;;3.93;2.07;;;;;;;-5.08;100.00;101519.03;5024447;28;20859;-51
2022/12/17 16:42:03;;;;;;;4.63;2.47;;;;;;;-5.04;100.00;101514.03;5025045;28;20452;-50
2022/12/17 16:44:29;;;;;;;4.87;3.00;;;;;;;-5.16;100.00;101515.16;5019239;28;20447;-50
2022/12/17 16:46:56;;;;;;;14.43;1.20;;;;;;;-5.41;100.00;101517.22;5031431;28;20494;-50
2022/12/17 16:49:25;;;;;;;2.77;1.43;;;;;;;-5.40;100.00;101509.50;5024119;28;20535;-49
2022/12/17 16:51:52;;;;;;;4.20;1.90;;;;;;;-5.45;100.00;101518.75;5018958;28;20475;-50
2022/12/17 16:54:22;;;;;;;2.97;2.77;;;;;;;-5.46;100.00;101516.06;5031467;28;20475;-51
2022/12/17 16:56:49;;;;;;;0.60;0.60;;;;;;;-5.35;100.00;101522.72;5018497;28;20448;-51
2022/12/17 16:59:16;;;;;;;2.70;2.60;;;;;;;-5.25;100.00;101521.53;5023209;28;20475;-50
2022/12/17 17:01:45;;;;;;;2.13;1.80;;;;;;;-5.38;100.00;101526.03;5026753;28;20487;-50
2022/12/17 17:04:14;;;;;;;8.03;0.73;;;;;;;-4.90;100.00;101520.84;5024395;28;20479;-50
2022/12/17 17:06:45;;;;;;;1.20;1.20;;;;;;;-4.73;100.00;101516.53;5021700;28;20799;-50
2022/12/17 17:09:13;;;;;;;2.07;1.83;;;;;;;-4.83;100.00;101515.16;5025275;28;20468;-50
2022/12/17 17:11:39;;;;;;;3.53;3.43;;;;;;;-4.96;100.00;101516.22;5028419;28;20941;-49
2022/12/17 17:14:06;;;;;;;1.47;1.47;;;;;;;-4.90;100.00;101523.44;5025743;28;20812;-49
2022/12/17 17:16:33;;;;;;;6.53;3.40;;;;;;;-4.92;100.00;101507.81;5021597;28;20955;-49
2022/12/17 17:19:00;;;;;;;1.70;1.13;;;;;;;-4.93;100.00;101513.81;5024424;28;20526;-51
2022/12/17 17:21:33;;;;;;;0.93;0.40;;;;;;;-4.89;100.00;101515.75;5019258;28;20541;-49
2022/12/17 17:24:07;;;;;;;3.67;3.47;;;;;;;-4.73;100.00;101521.72;5034953;28;20447;-49
2022/12/17 17:26:33;;;;;;;0.73;0.73;;;;;;;-5.20;100.00;101520.09;5021801;28;20443;-50
2022/12/17 17:29:00;;;;;;;3.07;2.73;;;;;;;-4.90;100.00;101515.66;5022305;28;20554;-50
2022/12/17 17:31:27;;;;;;;30.97;1.43;;;;;;;-4.65;100.00;101513.56;5028727;28;20499;-52
2022/12/17 17:34:14;;;;;;;2.33;1.70;;;;;;;-4.69;100.00;101516.78;5028908;28;20493;-50
2022/12/17 17:36:41;;;;;;;6.20;3.13;;;;;;;-4.41;100.00;101521.69;5023959;28;20459;-50
2022/12/17 17:39:08;;;;;;;1.97;1.80;;;;;;;-4.39;100.00;101525.25;5021077;28;20484;-50
2022/12/17 17:41:35;;;;;;;9.33;2.30;;;;;;;-4.54;100.00;101532.25;5025362;28;20488;-50
2022/12/17 17:44:07;;;;;;;4.00;3.20;;;;;;;-4.61;100.00;101531.06;5027930;28;20456;-49
2022/12/17 17:46:34;;;;;;;3.00;1.03;;;;;;;-4.54;100.00;101527.94;5036539;28;20439;-49
2022/12/17 17:49:03;;;;;;;0.97;0.97;;;;;;;-4.74;100.00;101531.22;5032545;28;20504;-50
2022/12/17 17:51:32;;;;;;;0.50;0.40;;;;;;;-4.77;100.00;101531.06;5020614;28;20449;-51
2022/12/17 17:54:19;;;;;;;14.17;4.50;;;;;;;-4.74;100.00;101538.09;5033390;28;20976;-49
2022/12/17 17:56:45;;;;;;;5.37;2.97;;;;;;;-4.58;100.00;101541.56;5020723;28;20456;-51
2022/12/17 17:59:14;;;;;;;5.57;3.53;;;;;;;-4.61;100.00;101546.59;5026919;28;20503;-50
2022/12/17 18:01:43;;;;;;;1.60;1.33;;;;;;;-4.22;100.00;101540.00;5027686;28;20491;-49
2022/12/17 18:04:12;;;;;;;1.03;1.03;;;;;;;-4.54;100.00;101546.09;5014603;28;20449;-51
2022/12/17 18:06:40;;;;;;;7.40;1.70;;;;;;;-4.42;100.00;101547.56;5027826;28;20455;-49
2022/12/17 18:09:27;;;;;;;3.07;2.87;;;;;;;-4.39;100.00;101542.53;5011728;28;20471;-50
2022/12/17 18:11:53;;;;;;;2.70;2.30;;;;;;;-4.46;100.00;101546.53;5020239;28;20455;-49
2022/12/17 18:14:20;;;;;;;11.53;3.57;;;;;;;-4.59;100.00;101557.97;5022117;28;20809;-51
2022/12/17 18:16:47;;;;;;;1.03;0.90;;;;;;;-4.52;100.00;101562.66;5014945;28;20460;-51
2022/12/17 18:19:19;;;;;;;1.60;1.50;;;;;;;-4.80;100.00;101546.44;5022024;28;20468;-50
2022/12/17 18:21:46;;;;;;;6.93;2.20;;;;;;;-4.86;100.00;101544.41;5033273;28;20499;-50
2022/12/17 18:24:21;;;;;;;1.90;1.40;;;;;;;-4.59;100.00;101544.97;5034058;28;20452;-51
2022/12/17 18:26:50;;;;;;;2.83;2.30;;;;;;;-4.67;100.00;101540.19;5022300;28;20450;-50
2022/12/17 18:29:27;;;;;;;2.40;2.30;;;;;;;-4.59;100.00;101550.16;5020349;28;20469;-50
2022/12/17 18:31:54;;;;;;;6.77;1.93;;;;;;;-4.51;100.00;101550.59;5023958;28;20448;-51
2022/12/17 18:34:25;;;;;;;2.90;2.80;;;;;;;-4.11;100.00;101555.19;5027046;28;20540;-49
2022/12/17 18:36:52;;;;;;;1.77;1.37;;;;;;;-4.19;100.00;101552.22;5024999;28;20452;-49
2022/12/17 18:39:22;;;;;;;1.17;0.93;;;;;;;-4.60;100.00;101553.59;5019962;28;20475;-50
2022/12/17 18:44:40;;;;;;;1.87;0.97;;;;;;;-4.72;100.00;101560.72;5020695;28;20448;-50
2022/12/17 18:47:08;;;;;;;12.10;1.13;;;;;;;-4.78;100.00;101568.19;5046867;28;20450;-49
2022/12/17 18:49:35;;;;;;;3.60;1.80;;;;;;;-4.52;100.00;101570.44;5024490;28;20488;-50
2022/12/17 18:52:02;;;;;;;25.67;2.40;;;;;;;-5.13;100.00;101566.25;5021376;28;20534;-49
2022/12/17 18:54:29;;;;;;;1.50;1.50;;;;;;;-5.56;100.00;101565.56;5033377;28;20447;-50
2022/12/17 18:56:56;;;;;;;11.40;2.57;;;;;;;-5.62;100.00;101576.44;5020128;28;20969;-50
2022/12/17 18:59:29;;;;;;;3.10;1.17;;;;;;;-5.61;100.00;101573.09;5023352;28;20535;-49
2022/12/17 19:01:56;;;;;;;1.23;1.23;;;;;;;-5.59;100.00;101573.16;5017124;28;20487;-50
2022/12/17 19:04:23;;;;;;;3.77;3.47;;;;;;;-5.55;100.00;101591.53;5022742;28;20459;-49
2022/12/17 19:06:52;;;;;;;3.10;1.37;;;;;;;-5.66;100.00;101587.44;5026409;28;20456;-49
2022/12/17 19:09:24;;;;;;;3.20;1.70;;;;;;;-5.73;100.00;101586.22;5013363;28;20468;-50
2022/12/17 19:11:52;;;;;;;0.37;0.37;;;;;;;-5.36;100.00;101584.00;5018528;28;20481;-48
2022/12/17 19:14:21;;;;;;;0.30;0.27;;;;;;;-5.34;100.00;101594.47;5023688;28;20452;-49
2022/12/17 19:16:49;;;;;;;3.60;2.87;;;;;;;-5.18;100.00;101585.84;5025018;28;20961;-49
2022/12/17 19:19:15;;;;;;;14.33;1.03;;;;;;;-5.39;100.00;101583.81;5025603;28;20480;-51
2022/12/17 19:21:42;;;;;;;25.33;3.70;;;;;;;-5.55;100.00;101595.84;5019205;28;20574;-49
2022/12/17 19:24:12;;;;;;;1.20;1.20;;;;;;;-5.48;100.00;101597.94;5031700;28;20469;-49
2022/12/17 19:26:39;;;;;;;3.40;2.23;;;;;;;-5.53;100.00;101589.03;5025099;28;20456;-50
2022/12/17 19:29:07;;;;;;;7.80;3.17;;;;;;;-5.53;100.00;101586.44;5023108;28;20622;-49
2022/12/17 19:31:34;;;;;;;1.23;1.23;;;;;;;-5.50;100.00;101599.56;5032477;28;20447;-49
2022/12/17 19:34:03;;;;;;;21.57;3.27;;;;;;;-5.57;100.00;101600.03;5018824;28;20449;-49
2022/12/17 19:36:32;;;;;;;3.70;2.00;;;;;;;-5.64;100.00;101596.19;5024438;28;20448;-50
2022/12/17 19:39:01;;;;;;;3.13;2.93;;;;;;;-5.90;100.00;101593.81;5018976;28;20479;-49
2022/12/17 19:41:28;;;;;;;2.00;1.13;;;;;;;-5.68;100.00;101587.34;5020405;28;20497;-50
2022/12/17 19:43:57;;;;;;;5.10;2.30;;;;;;;-5.63;100.00;101584.13;5030232;28;20451;-49
2022/12/17 19:46:25;;;;;;;2.63;1.60;;;;;;;-5.44;100.00;101585.28;5031736;28;20447;-49
2022/12/17 19:48:52;;;;;;;1.90;1.90;;;;;;;-5.25;100.00;101594.97;5030883;28;20475;-49
2022/12/17 19:51:21;;;;;;;9.43;3.23;;;;;;;-5.20;100.00;101598.72;5024392;28;20448;-50
2022/12/17 19:53:49;;;;;;;2.77;1.23;;;;;;;-5.15;100.00;101596.38;5029112;28;20448;-49
2022/12/17 19:56:19;;;;;;;4.53;2.67;;;;;;;-5.13;100.00;101597.34;5032337;28;20447;-49
2022/12/17 19:58:52;;;;;;;2.53;2.43;;;;;;;-5.18;100.00;101598.81;5018355;28;20482;-49
2022/12/17 20:01:24;;;;;;;2.93;2.83;;;;;;;-5.12;100.00;101593.94;5020380;28;20916;-49
2022/12/17 20:03:52;;;;;;;1.03;1.03;;;;;;;-5.09;100.00;101592.41;5008078;28;20510;-50
2022/12/17 20:06:21;;;;;;;2.73;0.47;;;;;;;-5.01;100.00;101600.63;5027675;28;20455;-49
2022/12/17 20:08:48;;;;;;;13.93;6.27;;;;;;;-5.05;100.00;101600.38;5021360;28;20809;-50
2022/12/17 20:11:33;;;;;;;4.63;3.27;;;;;;;-4.76;100.00;101615.81;5026262;28;20786;-51
2022/12/17 20:14:00;;;;;;;1.60;1.60;;;;;;;-4.54;100.00;101613.56;5022751;28;20539;-52
2022/12/17 20:16:30;;;;;;;1.50;1.50;;;;;;;-4.64;100.00;101613.00;5025694;28;20517;-52
2022/12/17 20:19:01;;;;;;;2.03;1.97;;;;;;;-4.96;100.00;101617.31;5032469;28;20525;-52
2022/12/17 20:21:27;;;;;;;2.13;0.97;;;;;;;-4.31;100.00;101626.88;5027583;28;20489;-52
2022/12/17 20:23:54;;;;;;;11.60;2.00;;;;;;;-4.81;100.00;101631.09;5019144;28;20468;-52
2022/12/17 20:26:20;;;;;;;4.03;2.70;;;;;;;-5.17;100.00;101622.22;5015177;28;20452;-52
2022/12/17 20:28:47;;;;;;;6.90;1.97;;;;;;;-5.07;100.00;101619.34;5012183;28;20468;-52
2022/12/17 20:31:14;;;;;;;0.60;0.60;;;;;;;-5.03;100.00;101617.78;5025672;28;20460;-52
2022/12/17 20:33:40;;;;;;;5.50;2.10;;;;;;;-5.10;100.00;101608.78;5023856;28;20811;-52
2022/12/17 20:36:09;;;;;;;1.50;1.40;;;;;;;-4.84;100.00;101609.31;5018787;28;20467;-51
2022/12/17 20:38:37;;;;;;;2.13;2.03;;;;;;;-5.06;100.00;101604.66;5028258;28;21028;-51
2022/12/17 20:41:08;;;;;;;2.37;2.27;;;;;;;-5.07;100.00;101598.59;5022255;28;20480;-52
2022/12/17 20:43:35;;;;;;;6.80;3.07;;;;;;;-4.97;100.00;101612.03;5023671;28;20494;-52
2022/12/17 20:46:02;;;;;;;4.07;1.83;;;;;;;-5.08;100.00;101617.50;5035285;28;20462;-50
2022/12/17 20:48:29;;;;;;;3.30;3.10;;;;;;;-5.41;100.00;101626.88;5022692;28;20523;-50
2022/12/17 20:50:55;;;;;;;0.30;0.30;;;;;;;-5.20;100.00;101626.34;5021925;28;20451;-51
2022/12/17 20:53:21;;;;;;;2.30;1.57;;;;;;;-5.09;100.00;101620.03;5029089;28;20871;-50
2022/12/17 20:55:58;;;;;;;3.03;2.73;;;;;;;-4.83;100.00;101627.53;5032393;28;20470;-50
2022/12/17 20:58:24;;;;;;;1.97;1.80;;;;;;;-4.81;100.00;101638.88;5022559;28;20472;-52
2022/12/17 21:00:51;;;;;;;0.40;0.40;;;;;;;-4.87;100.00;101635.06;5026745;28;20461;-51
2022/12/17 21:03:17;;;;;;;2.73;1.70;;;;;;;-4.96;100.00;101632.84;5028979;28;20451;-50
2022/12/17 21:05:44;;;;;;;2.60;2.50;;;;;;;-4.74;100.00;101629.75;5023775;28;20444;-50
2022/12/17 21:08:10;;;;;;;1.07;1.07;;;;;;;-4.85;100.00;101631.75;5021944;28;20518;-49
2022/12/17 21:10:37;;;;;;;1.17;1.17;;;;;;;-4.86;100.00;101624.78;5025418;28;20920;-49
2022/12/17 21:15:49;;;;;;;1.43;1.33;;;;;;;-4.74;100.00;101623.69;5027423;28;20454;-51
2022/12/17 21:18:15;;;;;;;2.23;2.13;;;;;;;-4.80;100.00;101619.97;5022063;28;20899;-50
2022/12/17 21:20:42;;;;;;;5.30;2.00;;;;;;;-4.98;100.00;101631.88;5023072;28;20942;-51
2022/12/17 21:23:10;;;;;;;5.03;3.93;;;;;;;-4.91;100.00;101634.03;5033731;28;20447;-49
2022/12/17 21:25:39;;;;;;;4.43;1.30;;;;;;;-4.85;100.00;101636.94;5022286;28;20456;-49
2022/12/17 21:28:06;;;;;;;1.47;1.37;;;;;;;-4.67;100.00;101641.34;5028240;28;20887;-50
2022/12/17 21:30:35;;;;;;;5.50;1.37;;;;;;;-4.84;100.00;101638.72;5027646;28;20869;-49
2022/12/17 21:33:01;;;;;;;6.03;1.67;;;;;;;-4.66;100.00;101635.34;5021493;28;20447;-49
2022/12/17 21:35:28;;;;;;;4.23;3.53;;;;;;;-4.79;100.00;101639.88;5021132;28;20457;-49
2022/12/17 21:37:54;;;;;;;6.03;2.10;;;;;;;-4.81;100.00;101638.00;5028163;28;20463;-52
2022/12/17 21:40:21;;;;;;;1.40;1.40;;;;;;;-5.14;100.00;101637.91;5028284;28;20440;-49
2022/12/17 21:43:00;;;;;;;1.00;1.00;;;;;;;-4.78;100.00;101630.41;5021533;28;21084;-49
2022/12/17 21:45:38;;;;;;;3.50;3.03;;;;;;;-4.78;100.00;101623.53;5034776;28;20463;-50
2022/12/17 21:48:06;;;;;;;3.23;3.03;;;;;;;-4.86;100.00;101624.78;5043734;28;20450;-50
2022/12/17 21:50:42;;;;;;;1.27;1.17;;;;;;;-4.83;100.00;101637.03;5021540;28;20447;-49
2022/12/17 21:53:10;;;;;;;4.63;3.43;;;;;;;-4.94;100.00;101651.09;5027061;28;20474;-51
2022/12/17 21:55:37;;;;;;;2.90;2.70;;;;;;;-4.93;100.00;101635.66;5028867;28;20453;-49
2022/12/17 21:58:04;;;;;;;6.10;1.80;;;;;;;-4.79;100.00;101636.41;5021817;28;20459;-49
2022/12/17 22:00:30;;;;;;;4.03;1.60;;;;;;;-4.59;100.00;101646.16;5027793;28;20449;-49
2022/12/17 22:02:57;;;;;;;1.83;1.83;;;;;;;-4.40;100.00;101654.91;5026792;28;20496;-49
2022/12/17 22:05:23;;;;;;;2.50;2.33;;;;;;;-4.73;100.00;101652.28;5022332;28;20864;-49
2022/12/17 22:07:50;;;;;;;2.10;2.00;;;;;;;-4.96;100.00;101644.94;5026387;28;20458;-51
2022/12/17 22:10:18;;;;;;;3.73;3.43;;;;;;;-4.84;100.00;101637.84;5015600;28;20492;-50
2022/12/17 22:16:07;;;;;;;5.77;1.80;;;;;;;-4.95;100.00;101639.81;4986486;28;20451;-50
2022/12/17 22:18:33;;;;;;;1.83;1.77;;;;;;;-5.21;100.00;101646.19;5026354;28;20476;-50
2022/12/17 22:21:00;;;;;;;3.50;1.73;;;;;;;-5.23;100.00;101646.88;5009322;28;20873;-50
2022/12/17 22:23:27;;;;;;;2.27;2.20;;;;;;;-5.04;100.00;101643.63;5025883;28;20547;-49
2022/12/17 22:25:54;;;;;;;1.20;1.10;;;;;;;-4.98;100.00;101633.59;5002791;28;20532;-52
2022/12/17 22:28:20;;;;;;;1.33;0.77;;;;;;;-4.97;100.00;101636.25;5025473;28;20468;-49
2022/12/17 22:33:33;;;;;;;6.23;3.37;;;;;;;-4.65;100.00;101640.63;5025259;28;20878;-49
2022/12/17 22:36:20;;;;;;;2.37;2.23;;;;;;;-5.10;100.00;101641.56;5025575;28;20970;-49
2022/12/17 22:39:09;;;;;;;1.03;1.03;;;;;;;-4.83;100.00;101634.44;5026839;28;21006;-50
2022/12/17 22:45:05;;;;;;;1.37;1.37;;;;;;;-5.31;100.00;101643.84;5029679;28;20448;-50
2022/12/17 22:47:36;;;;;;;1.07;1.07;;;;;;;-5.05;100.00;101645.34;5046833;28;20976;-50
2022/12/17 22:50:03;;;;;;;2.60;2.53;;;;;;;-4.80;100.00;101643.28;5030653;28;20549;-49
2022/12/17 22:52:30;;;;;;;1.20;1.20;;;;;;;-4.99;100.00;101655.13;5025166;28;20531;-50
2022/12/17 22:54:56;;;;;;;2.60;2.40;;;;;;;-4.92;100.00;101650.41;5033663;28;20459;-49
2022/12/17 22:57:23;;;;;;;3.27;2.23;;;;;;;-4.83;100.00;101650.88;5020142;28;20454;-49
2022/12/17 23:00:17;;;;;;;1.23;1.23;;;;;;;-5.00;100.00;101658.53;5022833;28;21028;-49
2022/12/17 23:02:43;;;;;;;2.40;0.63;;;;;;;-4.71;100.00;101653.25;5023653;28;20489;-50
2022/12/17 23:05:10;;;;;;;3.90;2.10;;;;;;;-4.37;100.00;101661.19;5019802;28;20913;-49
2022/12/17 23:07:37;;;;;;;2.00;1.90;;;;;;;-4.87;100.00;101671.38;5022391;28;20463;-49
2022/12/17 23:10:04;;;;;;;1.80;1.70;;;;;;;-4.88;100.00;101675.66;5025882;28;21000;-49
2022/12/17 23:12:49;;;;;;;1.07;0.97;;;;;;;-4.85;100.00;101669.75;5024077;28;20444;-49
2022/12/17 23:15:35;;;;;;;24.60;2.10;;;;;;;-4.80;100.00;101673.47;5025926;28;20536;-50
2022/12/17 23:18:05;;;;;;;4.10;1.10;;;;;;;-4.61;100.00;101673.72;5026676;28;20448;-49
2022/12/17 23:20:33;;;;;;;3.00;2.80;;;;;;;-4.83;100.00;101675.91;5023005;28;20543;-49
2022/12/17 23:23:00;;;;;;;2.00;1.90;;;;;;;-4.78;100.00;101672.78;5023779;28;20545;-50
2022/12/17 23:25:28;;;;;;;3.17;1.87;;;;;;;-4.83;100.00;101665.53;5021908;28;20943;-49
2022/12/17 23:27:54;;;;;;;0.70;0.70;;;;;;;-4.89;100.00;101665.22;5025978;28;20449;-50
2022/12/17 23:30:21;;;;;;;7.50;2.83;;;;;;;-5.07;100.00;101668.56;5016327;28;20452;-49
2022/12/17 23:32:47;;;;;;;13.47;2.97;;;;;;;-5.12;100.00;101662.22;5025619;28;20453;-49
2022/12/17 23:35:14;;;;;;;7.80;2.70;;;;;;;-5.09;100.00;101659.78;5023971;28;20463;-50
2022/12/17 23:37:41;;;;;;;2.03;2.03;;;;;;;-4.79;100.00;101665.81;5019203;28;20466;-49
2022/12/17 23:40:11;;;;;;;0.17;0.17;;;;;;;-4.53;100.00;101666.31;5021296;28;20485;-49
2022/12/17 23:42:38;;;;;;;1.80;0.97;;;;;;;-4.62;100.00;101656.34;5025706;28;20490;-50
2022/12/17 23:45:06;;;;;;;3.17;1.57;;;;;;;-4.40;100.00;101652.31;5024431;28;20807;-50
2022/12/17 23:47:33;;;;;;;1.90;0.70;;;;;;;-4.95;100.00;101655.38;5026698;28;20457;-50
2022/12/17 23:49:59;;;;;;;1.10;0.90;;;;;;;-4.78;100.00;101644.25;5024840;28;20554;-49
2022/12/17 23:52:26;;;;;;;2.37;2.23;;;;;;;-4.58;100.00;101650.53;5024234;28;20818;-49
2022/12/17 23:54:52;;;;;;;3.50;2.30;;;;;;;-4.62;100.00;101648.56;5032146;28;20448;-51
2022/12/17 23:57:19;;;;;;;6.33;1.17;;;;;;;-4.79;100.00;101646.78;5016376;28;20499;-49
2022/12/17 23:59:45;;;;;;;1.00;1.00;;;;;;;-5.06;100.00;101640.97;5025239;28;20468;-49
